Terminal Aerodrome Forecast
Issued by NWS Twin Cities, MN

Home | Current Version | Previous Version | Text Only | Print | Product List | Glossary On
Versions: 1 2 3 4 5 6 7 8 9 10 11 12 13 14 15 16 17
000
FTUS43 KMPX 282000 AAA
TAFEAU
TAF AMD
KEAU 282002Z 2820/2918 26012G20KT P6SM SCT025 OVC040
     FM290200 28011KT P6SM FEW025 OVC040
     FM290800 30010KT P6SM SCT011 OVC018
     FM291600 30008KT P6SM OVC025=

USA.gov is the U.S. government's official web portal to all federal, state and local government web resources and services.